Time;durP1;ratioP1;P1;durP2;ratioP2;P2;SDS_P1;SDS_P2;PMS_P1;PMS_P2;Temp;Humidity;BMP_temperature;BMP_pressure;BME280_temperature;BME280_humidity;BME280_pressure;Samples;Min_cycle;Max_cycle;Signal;HPM_P1;HPM_P2
2021/07/16 00:00:41;;;;;;;34.45;26.15;;;20.90;99.90;;;;;;5092699;28;20040;-80
2021/07/16 00:03:07;;;;;;;34.90;25.77;;;20.90;99.90;;;;;;5092612;28;20024;-79
2021/07/16 00:05:32;;;;;;;35.38;25.77;;;20.80;99.90;;;;;;5093696;28;20039;-80
2021/07/16 00:07:58;;;;;;;35.60;26.65;;;20.80;99.90;;;;;;5095918;28;20028;-80
2021/07/16 00:10:24;;;;;;;41.58;27.60;;;20.70;99.90;;;;;;5104041;28;20019;-81
2021/07/16 00:12:50;;;;;;;38.72;28.55;;;20.60;99.90;;;;;;5116747;28;20035;-80
2021/07/16 00:15:18;;;;;;;38.22;29.20;;;20.60;99.90;;;;;;5102959;28;20028;-80
2021/07/16 00:17:45;;;;;;;36.92;28.52;;;20.60;99.90;;;;;;5096342;28;20107;-81
2021/07/16 00:20:12;;;;;;;40.75;28.52;;;20.70;99.90;;;;;;5096294;28;20020;-81
2021/07/16 00:22:37;;;;;;;38.40;28.17;;;20.70;99.90;;;;;;5096301;28;20017;-80
2021/07/16 00:25:05;;;;;;;42.30;30.52;;;20.70;99.90;;;;;;5094865;28;20503;-82
2021/07/16 00:27:31;;;;;;;39.60;27.95;;;20.80;99.90;;;;;;5110319;28;20476;-80
2021/07/16 00:29:56;;;;;;;36.53;26.45;;;20.80;99.90;;;;;;5116353;28;20038;-80
2021/07/16 00:32:23;;;;;;;41.42;27.65;;;20.80;99.90;;;;;;5114757;28;20023;-80
2021/07/16 00:34:48;;;;;;;36.42;27.17;;;20.80;99.90;;;;;;5115117;28;20492;-80
2021/07/16 00:37:14;;;;;;;40.65;28.27;;;20.80;99.90;;;;;;5116356;28;20028;-81
2021/07/16 00:39:40;;;;;;;44.15;29.42;;;20.80;99.90;;;;;;5116242;28;20027;-79
2021/07/16 00:42:06;;;;;;;39.92;27.52;;;20.80;99.90;;;;;;5116258;28;20064;-80
2021/07/16 00:44:34;;;;;;;33.35;25.35;;;20.80;99.90;;;;;;5114845;28;20019;-79
2021/07/16 00:47:00;;;;;;;32.60;24.38;;;20.80;99.90;;;;;;5116196;27;20064;-79
2021/07/16 00:49:26;;;;;;;38.00;26.50;;;20.80;99.90;;;;;;5114603;28;20059;-80
2021/07/16 00:51:51;;;;;;;32.55;24.92;;;20.70;99.90;;;;;;5116170;28;20020;-82
2021/07/16 00:54:17;;;;;;;34.03;25.10;;;20.70;99.90;;;;;;5115739;28;20489;-79
2021/07/16 00:56:43;;;;;;;34.15;25.58;;;20.70;99.90;;;;;;5115782;28;20030;-80
2021/07/16 00:59:14;;;;;;;40.35;26.83;;;20.70;99.90;;;;;;5115852;28;20020;-80
2021/07/16 01:01:41;;;;;;;33.03;24.95;;;20.70;99.90;;;;;;5115971;28;20024;-80
2021/07/16 01:04:07;;;;;;;34.72;26.08;;;20.70;99.90;;;;;;5100810;28;20427;-80
2021/07/16 01:06:32;;;;;;;34.83;26.80;;;20.70;99.90;;;;;;5095372;28;20107;-80
2021/07/16 01:08:58;;;;;;;36.65;27.13;;;20.70;99.90;;;;;;5095354;28;20099;-80
2021/07/16 01:11:24;;;;;;;34.22;26.45;;;20.70;99.90;;;;;;5093969;28;20077;-81
2021/07/16 01:13:50;;;;;;;36.40;27.67;;;20.80;99.90;;;;;;5095182;28;20038;-80
2021/07/16 01:16:16;;;;;;;40.88;28.90;;;20.70;99.90;;;;;;5094859;28;20020;-81
2021/07/16 01:18:42;;;;;;;35.70;24.98;;;20.60;99.90;;;;;;5093834;28;20073;-81
2021/07/16 01:21:08;;;;;;;39.72;28.42;;;20.50;99.90;;;;;;5095138;28;20019;-80
2021/07/16 01:23:34;;;;;;;34.47;26.70;;;20.60;99.90;;;;;;5094965;28;20028;-80
2021/07/16 01:26:00;;;;;;;38.83;26.48;;;20.60;99.90;;;;;;5093760;28;20028;-80
2021/07/16 01:28:25;;;;;;;40.78;27.25;;;20.60;99.90;;;;;;5094965;28;20031;-80
2021/07/16 01:30:53;;;;;;;40.67;27.42;;;20.60;99.90;;;;;;5093692;28;20533;-80
2021/07/16 01:33:20;;;;;;;35.22;25.63;;;20.60;99.90;;;;;;5093432;28;20040;-80
2021/07/16 01:35:45;;;;;;;41.40;28.50;;;20.60;99.90;;;;;;5094745;28;20028;-79
2021/07/16 01:38:11;;;;;;;36.88;26.30;;;20.60;99.90;;;;;;5094699;28;20069;-80
2021/07/16 01:40:37;;;;;;;38.85;26.98;;;20.60;99.90;;;;;;5094765;28;20027;-81
2021/07/16 01:43:06;;;;;;;39.67;24.95;;;20.50;99.90;;;;;;5094648;28;20020;-79
2021/07/16 01:45:35;;;;;;;37.67;25.00;;;20.60;99.90;;;;;;5093409;28;20451;-79
2021/07/16 01:48:03;;;;;;;31.45;23.27;;;20.60;99.90;;;;;;5094824;28;20031;-81
2021/07/16 01:50:30;;;;;;;30.33;23.25;;;20.60;99.90;;;;;;5094530;28;20476;-80
2021/07/16 01:52:57;;;;;;;36.25;22.55;;;20.60;99.90;;;;;;5093109;28;20545;-80
2021/07/16 01:55:23;;;;;;;40.92;25.95;;;20.70;99.90;;;;;;5092823;28;20389;-80
2021/07/16 01:57:54;;;;;;;36.85;24.10;;;20.70;99.90;;;;;;5093120;28;20020;-80
2021/07/16 02:00:29;;;;;;;39.28;26.73;;;20.80;99.90;;;;;;5093112;28;20039;-80
2021/07/16 02:03:00;;;;;;;37.65;25.55;;;20.80;99.90;;;;;;5099138;28;20491;-80
2021/07/16 02:05:27;;;;;;;35.67;23.88;;;20.80;99.90;;;;;;5114573;28;20024;-80
2021/07/16 02:07:57;;;;;;;38.13;23.60;;;20.90;99.90;;;;;;5114622;28;20130;-80
2021/07/16 02:10:25;;;;;;;38.40;24.63;;;20.90;99.90;;;;;;5114547;28;20387;-80
2021/07/16 02:12:51;;;;;;;36.50;23.77;;;20.90;99.90;;;;;;5114449;28;20042;-80
2021/07/16 02:15:19;;;;;;;28.95;22.20;;;20.90;99.90;;;;;;5113153;28;20122;-81
2021/07/16 02:17:46;;;;;;;40.17;24.75;;;21.00;99.90;;;;;;5114554;28;20024;-80
2021/07/16 02:20:19;;;;;;;33.33;25.13;;;20.90;99.90;;;;;;5113783;28;20069;-80
2021/07/16 02:22:44;;;;;;;40.03;26.23;;;20.90;99.90;;;;;;5112711;28;20547;-79
2021/07/16 02:25:11;;;;;;;37.10;26.58;;;20.90;99.90;;;;;;5114293;28;20024;-80
2021/07/16 02:27:37;;;;;;;38.92;26.40;;;20.80;99.90;;;;;;5112208;28;20110;-79
2021/07/16 02:30:05;;;;;;;39.95;28.23;;;20.90;99.90;;;;;;5113639;27;20107;-80
2021/07/16 02:32:31;;;;;;;39.88;27.00;;;20.90;99.90;;;;;;5112538;28;20037;-80
2021/07/16 02:34:57;;;;;;;35.30;23.77;;;20.90;99.90;;;;;;5114011;28;20107;-80
2021/07/16 02:37:22;;;;;;;43.08;24.98;;;20.80;99.90;;;;;;5113549;28;20419;-80
2021/07/16 02:39:48;;;;;;;36.17;24.83;;;20.90;99.90;;;;;;5113297;28;20391;-79
2021/07/16 02:42:13;;;;;;;38.78;26.33;;;20.90;99.90;;;;;;5113628;28;20019;-80
2021/07/16 02:44:39;;;;;;;42.40;27.75;;;20.90;99.90;;;;;;5113902;28;20028;-79
2021/07/16 02:47:05;;;;;;;38.03;26.85;;;20.90;99.90;;;;;;5112606;28;20023;-80
2021/07/16 02:49:30;;;;;;;48.00;29.83;;;20.90;99.90;;;;;;5112442;28;20533;-80
2021/07/16 02:51:56;;;;;;;40.10;29.65;;;20.90;99.90;;;;;;5112565;28;20064;-80
2021/07/16 02:54:21;;;;;;;40.70;27.73;;;20.80;99.90;;;;;;5112283;28;20036;-81
2021/07/16 02:56:47;;;;;;;49.38;28.30;;;20.80;99.90;;;;;;5112475;28;20016;-81
2021/07/16 02:59:13;;;;;;;44.00;27.60;;;20.80;99.90;;;;;;5112352;28;20106;-80
2021/07/16 03:01:59;;;;;;;46.33;28.33;;;20.80;99.90;;;;;;5113650;28;20093;-81
2021/07/16 03:04:26;;;;;;;46.55;28.58;;;20.90;99.90;;;;;;5095932;28;20063;-80
2021/07/16 03:06:52;;;;;;;41.90;27.17;;;20.90;99.90;;;;;;5093252;28;20023;-81
2021/07/16 03:09:18;;;;;;;43.35;27.50;;;20.80;99.90;;;;;;5093133;28;20030;-80
2021/07/16 03:11:44;;;;;;;43.95;27.70;;;20.90;99.90;;;;;;5093164;28;20102;-81
2021/07/16 03:14:09;;;;;;;47.60;29.05;;;20.90;99.90;;;;;;5092986;28;20039;-79
2021/07/16 03:16:35;;;;;;;59.90;29.75;;;20.90;99.90;;;;;;5091858;28;20024;-80
2021/07/16 03:19:02;;;;;;;54.47;31.02;;;20.80;99.90;;;;;;5091706;28;20038;-80
2021/07/16 03:21:28;;;;;;;58.30;32.22;;;20.70;99.90;;;;;;5091701;28;20027;-81
2021/07/16 03:23:53;;;;;;;64.43;31.58;;;20.70;99.90;;;;;;5094837;28;20024;-80
2021/07/16 03:26:19;;;;;;;60.10;33.78;;;20.70;99.90;;;;;;5112959;28;20031;-80
2021/07/16 03:28:45;;;;;;;74.03;35.58;;;20.80;99.90;;;;;;5111987;28;20114;-80
2021/07/16 03:31:11;;;;;;;64.43;33.70;;;20.70;99.90;;;;;;5112315;28;20478;-80
2021/07/16 03:33:37;;;;;;;78.05;37.28;;;20.80;99.90;;;;;;5111933;28;20119;-80
2021/07/16 03:36:04;;;;;;;70.55;36.33;;;20.80;99.90;;;;;;5111610;28;20065;-80
2021/07/16 03:38:30;;;;;;;71.63;35.78;;;20.80;99.90;;;;;;5111844;28;20182;-80
2021/07/16 03:40:58;;;;;;;78.40;39.63;;;20.80;99.90;;;;;;5104004;28;20039;-80
2021/07/16 03:43:24;;;;;;;81.80;38.38;;;20.80;99.90;;;;;;5096632;28;20017;-79
2021/07/16 03:45:51;;;;;;;79.78;38.13;;;20.80;99.90;;;;;;5095526;28;20050;-80
2021/07/16 03:48:18;;;;;;;84.60;38.78;;;20.80;99.90;;;;;;5095527;28;20028;-79
2021/07/16 03:50:44;;;;;;;102.57;42.30;;;20.80;99.90;;;;;;5096653;28;20044;-81
2021/07/16 03:53:09;;;;;;;80.10;40.88;;;20.80;99.90;;;;;;5096458;28;20124;-80
2021/07/16 03:55:35;;;;;;;91.65;41.97;;;20.80;99.90;;;;;;5114882;28;20066;-81
2021/07/16 03:58:01;;;;;;;86.50;40.30;;;20.80;99.90;;;;;;5114848;28;20484;-81
2021/07/16 04:00:29;;;;;;;93.97;42.00;;;20.80;99.90;;;;;;5099091;28;20393;-81
2021/07/16 04:02:56;;;;;;;97.95;43.53;;;20.80;99.90;;;;;;5096681;28;20446;-80
2021/07/16 04:05:23;;;;;;;99.93;40.45;;;20.80;99.90;;;;;;5096525;28;20012;-80
2021/07/16 04:07:50;;;;;;;126.68;44.63;;;20.80;99.90;;;;;;5096649;28;20028;-79
2021/07/16 04:10:21;;;;;;;104.82;43.67;;;20.80;99.90;;;;;;5099091;28;20365;-80
2021/07/16 04:12:55;;;;;;;111.88;44.28;;;20.80;99.90;;;;;;5115223;28;20034;-80
2021/07/16 04:15:22;;;;;;;96.80;44.95;;;20.80;99.90;;;;;;5097267;28;20505;-80
2021/07/16 04:17:48;;;;;;;112.32;46.13;;;20.80;99.90;;;;;;5096181;28;20080;-80
2021/07/16 04:20:14;;;;;;;106.25;45.13;;;20.80;99.90;;;;;;5097170;28;20420;-81
2021/07/16 04:22:40;;;;;;;139.95;45.42;;;20.80;99.90;;;;;;5094374;28;20073;-80
2021/07/16 04:25:07;;;;;;;100.15;44.72;;;20.80;99.90;;;;;;5103573;28;20023;-80
2021/07/16 04:27:33;;;;;;;99.40;45.78;;;20.90;99.90;;;;;;5114281;28;20096;-80
2021/07/16 04:29:59;;;;;;;98.80;47.35;;;20.90;99.90;;;;;;5116063;28;20020;-80
2021/07/16 04:32:25;;;;;;;109.28;49.97;;;21.00;99.90;;;;;;5114700;28;20028;-80
2021/07/16 04:34:50;;;;;;;118.88;53.83;;;21.10;99.90;;;;;;5116359;28;20392;-80
2021/07/16 04:37:16;;;;;;;116.63;53.30;;;21.10;99.90;;;;;;5115788;28;20506;-80
2021/07/16 04:39:42;;;;;;;111.68;53.47;;;21.10;99.90;;;;;;5109480;28;20016;-80
2021/07/16 04:42:08;;;;;;;113.85;55.42;;;21.10;99.90;;;;;;5104795;28;20059;-80
2021/07/16 04:44:35;;;;;;;106.93;53.75;;;21.10;99.90;;;;;;5104582;28;20023;-80
2021/07/16 04:47:01;;;;;;;116.50;55.83;;;21.10;99.90;;;;;;5115232;28;20034;-81
2021/07/16 04:49:27;;;;;;;111.32;53.20;;;21.10;99.90;;;;;;5112436;27;20020;-80
2021/07/16 04:51:53;;;;;;;115.70;56.38;;;21.10;99.90;;;;;;5109953;28;20031;-80
2021/07/16 04:54:19;;;;;;;108.80;53.17;;;21.10;99.90;;;;;;5110618;28;20040;-80
2021/07/16 04:56:46;;;;;;;101.97;52.08;;;21.10;99.90;;;;;;5107363;28;20031;-80
2021/07/16 04:59:11;;;;;;;110.88;53.47;;;21.20;99.90;;;;;;5112056;28;20437;-80
2021/07/16 05:01:37;;;;;;;100.40;51.92;;;21.20;99.90;;;;;;5109088;28;20114;-80
2021/07/16 05:04:03;;;;;;;106.32;55.10;;;21.20;99.90;;;;;;5092044;28;20115;-81
2021/07/16 05:06:29;;;;;;;101.75;54.05;;;21.30;99.90;;;;;;5093208;28;20024;-81
2021/07/16 05:08:55;;;;;;;104.57;50.95;;;21.30;99.90;;;;;;5094991;28;20039;-80
2021/07/16 05:11:21;;;;;;;97.50;51.13;;;21.40;99.90;;;;;;5108805;28;20087;-81
2021/07/16 05:13:47;;;;;;;92.03;48.10;;;21.50;99.90;;;;;;5115227;28;20173;-80
2021/07/16 05:16:14;;;;;;;84.07;46.55;;;21.60;99.90;;;;;;5098380;28;20489;-80
2021/07/16 05:18:41;;;;;;;75.03;45.47;;;21.60;99.90;;;;;;5094264;28;20016;-80
2021/07/16 05:21:09;;;;;;;82.07;47.25;;;21.70;99.90;;;;;;5095155;28;20024;-80
2021/07/16 05:23:35;;;;;;;90.38;50.63;;;21.70;99.90;;;;;;5094833;28;20074;-80
2021/07/16 05:26:01;;;;;;;88.38;47.92;;;21.70;99.90;;;;;;5093770;28;20067;-79
2021/07/16 05:28:27;;;;;;;87.85;48.70;;;21.80;99.90;;;;;;5094130;28;20111;-78
2021/07/16 05:30:53;;;;;;;82.32;46.90;;;21.80;99.90;;;;;;5115425;28;20035;-78
2021/07/16 05:33:19;;;;;;;76.63;43.70;;;21.80;99.90;;;;;;5113882;28;20027;-78
2021/07/16 05:35:46;;;;;;;81.75;45.25;;;21.80;99.90;;;;;;5115260;28;20095;-78
2021/07/16 05:38:12;;;;;;;84.07;45.55;;;21.80;99.90;;;;;;5113769;28;20435;-77
2021/07/16 05:40:39;;;;;;;79.18;45.83;;;21.80;99.90;;;;;;5114358;28;20024;-78
2021/07/16 05:43:09;;;;;;;85.70;46.15;;;21.80;99.90;;;;;;5107689;28;20032;-77
2021/07/16 05:45:36;;;;;;;81.38;46.80;;;21.90;99.90;;;;;;5101257;28;20560;-77
2021/07/16 05:48:04;;;;;;;80.65;46.58;;;21.90;99.90;;;;;;5107380;28;20027;-77
2021/07/16 05:50:30;;;;;;;77.60;45.03;;;22.00;99.90;;;;;;5097791;27;20103;-78
2021/07/16 05:52:56;;;;;;;82.70;45.72;;;22.00;99.90;;;;;;5092978;28;20054;-78
2021/07/16 05:55:22;;;;;;;80.50;46.13;;;22.00;99.90;;;;;;5094268;28;20409;-78
2021/07/16 05:57:48;;;;;;;73.70;41.40;;;22.00;99.90;;;;;;5100748;28;20020;-79
2021/07/16 06:00:14;;;;;;;78.13;37.65;;;22.00;99.90;;;;;;5106262;28;20080;-79
2021/07/16 06:02:40;;;;;;;75.38;43.17;;;22.20;99.90;;;;;;5113464;28;20028;-79
2021/07/16 06:05:07;;;;;;;74.47;41.72;;;22.30;99.90;;;;;;5109483;28;20116;-78
2021/07/16 06:07:32;;;;;;;63.88;40.85;;;22.30;99.90;;;;;;5105506;28;20015;-78
2021/07/16 06:09:58;;;;;;;72.85;40.85;;;22.40;99.90;;;;;;5098344;28;20450;-78
2021/07/16 06:12:24;;;;;;;77.07;40.15;;;22.30;99.90;;;;;;5099375;28;20036;-79
2021/07/16 06:14:56;;;;;;;72.28;40.47;;;22.30;99.90;;;;;;5105031;28;20048;-79
2021/07/16 06:17:23;;;;;;;67.78;37.65;;;22.40;99.90;;;;;;5101452;28;20102;-78
2021/07/16 06:19:49;;;;;;;67.60;39.50;;;22.50;99.90;;;;;;5094206;28;20028;-79
2021/07/16 06:22:14;;;;;;;71.10;38.35;;;22.50;99.90;;;;;;5102765;28;20378;-80
2021/07/16 06:24:40;;;;;;;60.63;36.13;;;22.60;99.90;;;;;;5102146;28;20101;-79
2021/07/16 06:27:06;;;;;;;60.13;37.70;;;22.50;99.90;;;;;;5107773;28;20019;-81
2021/07/16 06:29:32;;;;;;;70.95;38.17;;;22.50;99.90;;;;;;5099880;28;20464;-80
2021/07/16 06:31:58;;;;;;;64.45;38.55;;;22.50;99.90;;;;;;5099305;28;20027;-80
2021/07/16 06:34:23;;;;;;;66.07;36.42;;;22.40;99.90;;;;;;5100863;28;20031;-80
2021/07/16 06:36:49;;;;;;;63.58;37.90;;;22.40;99.90;;;;;;5093259;28;20020;-79
2021/07/16 06:39:15;;;;;;;63.25;35.35;;;22.50;99.90;;;;;;5090397;28;20024;-79
2021/07/16 06:41:40;;;;;;;64.40;35.92;;;22.60;99.90;;;;;;5088934;28;20031;-79
2021/07/16 06:44:08;;;;;;;64.35;35.05;;;22.70;99.90;;;;;;5090092;28;20030;-79
2021/07/16 06:46:33;;;;;;;62.22;33.47;;;22.80;99.90;;;;;;5090939;28;20012;-79
2021/07/16 06:48:59;;;;;;;56.13;32.15;;;23.00;99.90;;;;;;5106831;28;20110;-78
2021/07/16 06:51:24;;;;;;;61.88;33.65;;;23.00;99.90;;;;;;5108470;28;20107;-79
2021/07/16 06:53:50;;;;;;;56.17;31.63;;;23.00;99.90;;;;;;5099167;28;20554;-78
2021/07/16 06:56:16;;;;;;;50.60;32.35;;;23.20;99.90;;;;;;5091038;28;20035;-79
2021/07/16 06:58:41;;;;;;;50.10;30.73;;;23.20;99.90;;;;;;5097857;28;20024;-79
2021/07/16 07:01:07;;;;;;;54.97;32.72;;;23.20;99.90;;;;;;5090632;28;20016;-79
2021/07/16 07:03:33;;;;;;;55.25;30.98;;;23.20;99.90;;;;;;5108782;28;20116;-80
2021/07/16 07:05:59;;;;;;;50.75;31.23;;;23.00;99.90;;;;;;5109072;28;20121;-79
2021/07/16 07:08:25;;;;;;;48.72;31.40;;;22.90;99.90;;;;;;5108495;28;20078;-79
2021/07/16 07:10:50;;;;;;;43.80;29.60;;;22.90;99.90;;;;;;5109936;28;20070;-79
2021/07/16 07:13:17;;;;;;;34.17;25.40;;;23.00;99.90;;;;;;5109523;28;20408;-78
2021/07/16 07:15:43;;;;;;;32.10;23.08;;;22.90;99.90;;;;;;5094856;28;20016;-79
2021/07/16 07:18:09;;;;;;;32.55;21.90;;;22.80;99.90;;;;;;5104287;28;20393;-79
2021/07/16 07:20:36;;;;;;;33.67;23.00;;;22.70;99.90;;;;;;5091560;28;20027;-79
2021/07/16 07:23:04;;;;;;;34.47;23.63;;;22.70;99.90;;;;;;5089418;28;20027;-79
2021/07/16 07:25:30;;;;;;;32.58;22.52;;;22.70;99.90;;;;;;5089392;28;20489;-81
2021/07/16 07:27:56;;;;;;;29.83;22.98;;;22.60;99.90;;;;;;5089817;28;20474;-82
2021/07/16 07:30:23;;;;;;;30.50;22.80;;;22.50;99.90;;;;;;5084439;28;20552;-81
2021/07/16 07:32:49;;;;;;;33.33;23.90;;;22.50;99.90;;;;;;5106286;27;20504;-80
2021/07/16 07:35:17;;;;;;;37.63;24.00;;;22.40;99.90;;;;;;5109738;28;20451;-81
2021/07/16 07:37:44;;;;;;;34.83;21.73;;;22.40;99.90;;;;;;5108843;27;20047;-82
2021/07/16 07:40:12;;;;;;;29.48;21.45;;;22.30;99.90;;;;;;5110623;28;20128;-84
2021/07/16 07:42:39;;;;;;;29.75;22.02;;;22.30;99.90;;;;;;5109147;27;20037;-83
2021/07/16 07:45:06;;;;;;;31.98;22.92;;;22.30;99.90;;;;;;5111353;28;20030;-82
2021/07/16 07:47:33;;;;;;;26.35;22.05;;;22.40;99.90;;;;;;5094016;28;20036;-82
2021/07/16 07:50:01;;;;;;;32.83;22.27;;;22.50;99.90;;;;;;5108687;28;20541;-82
2021/07/16 07:52:27;;;;;;;29.02;21.70;;;22.50;99.90;;;;;;5109840;28;20026;-82
2021/07/16 07:54:53;;;;;;;29.95;21.33;;;22.50;99.90;;;;;;5111447;28;20488;-82
2021/07/16 07:57:19;;;;;;;36.83;23.20;;;22.50;99.90;;;;;;5110505;28;20066;-83
2021/07/16 07:59:45;;;;;;;27.90;20.55;;;22.50;99.90;;;;;;5105854;28;20040;-83
2021/07/16 08:02:11;;;;;;;24.83;19.02;;;22.50;99.90;;;;;;5095063;28;20031;-83
2021/07/16 08:04:38;;;;;;;20.15;15.05;;;22.40;99.90;;;;;;5090428;28;20028;-84
2021/07/16 08:07:04;;;;;;;15.43;11.55;;;22.20;99.90;;;;;;5090008;28;20381;-84
2021/07/16 08:09:30;;;;;;;15.60;12.85;;;22.10;99.90;;;;;;5089573;28;20469;-84
2021/07/16 08:11:56;;;;;;;11.77;9.05;;;22.30;99.90;;;;;;5090374;28;20035;-84
2021/07/16 08:14:22;;;;;;;13.35;9.20;;;22.20;99.90;;;;;;5089274;28;20447;-83
2021/07/16 08:16:48;;;;;;;11.38;8.95;;;22.30;99.90;;;;;;5099853;28;20024;-83
2021/07/16 08:19:17;;;;;;;9.32;7.70;;;22.30;99.90;;;;;;5101830;28;20118;-83
2021/07/16 08:21:44;;;;;;;8.18;7.28;;;22.30;99.90;;;;;;5110145;28;20024;-83
2021/07/16 08:24:10;;;;;;;6.50;5.90;;;22.30;99.90;;;;;;5109850;28;20043;-83
2021/07/16 08:26:36;;;;;;;9.70;7.18;;;22.40;99.90;;;;;;5112459;28;20016;-83
2021/07/16 08:29:01;;;;;;;9.00;6.38;;;22.50;99.90;;;;;;5110298;27;20047;-83
2021/07/16 08:31:27;;;;;;;8.48;6.40;;;22.50;99.90;;;;;;5103285;28;20015;-83
2021/07/16 08:33:52;;;;;;;7.10;5.53;;;22.60;99.90;;;;;;5093903;28;20131;-83
2021/07/16 08:36:18;;;;;;;7.93;6.20;;;22.60;99.90;;;;;;5091314;28;20072;-82
2021/07/16 08:38:46;;;;;;;7.38;6.38;;;22.50;99.90;;;;;;5092276;28;20032;-83
2021/07/16 08:41:12;;;;;;;8.05;6.82;;;22.50;99.90;;;;;;5092580;28;20044;-83
2021/07/16 08:43:40;;;;;;;8.00;7.00;;;22.50;99.90;;;;;;5091152;28;20052;-83
2021/07/16 08:46:08;;;;;;;7.40;6.55;;;22.60;99.90;;;;;;5091703;28;20095;-82
2021/07/16 08:48:36;;;;;;;8.65;7.18;;;22.70;99.90;;;;;;5113425;27;20044;-82
2021/07/16 08:51:02;;;;;;;10.32;6.78;;;22.80;99.90;;;;;;5113984;28;20027;-83
2021/07/16 08:53:29;;;;;;;8.32;7.50;;;22.80;99.90;;;;;;5111966;28;20040;-83
2021/07/16 08:55:55;;;;;;;11.73;7.57;;;23.00;99.90;;;;;;5109394;27;20096;-82
2021/07/16 08:58:21;;;;;;;11.00;7.15;;;23.00;99.90;;;;;;5110428;28;20271;-83
2021/07/16 09:00:46;;;;;;;10.73;7.47;;;23.10;99.90;;;;;;5111992;28;20455;-83
2021/07/16 09:03:13;;;;;;;8.73;7.63;;;23.10;99.90;;;;;;5106462;28;20034;-82
2021/07/16 09:05:42;;;;;;;8.60;7.20;;;23.40;99.90;;;;;;5107854;28;20560;-82
2021/07/16 09:08:27;;;;;;;12.35;7.78;;;23.60;98.80;;;;;;5109897;28;20026;-82
2021/07/16 09:10:59;;;;;;;9.20;7.20;;;24.10;95.70;;;;;;5111667;28;20024;-83
2021/07/16 09:13:26;;;;;;;;;;;24.50;87.90;;;;;;5111239;28;20039;-83
2021/07/16 09:16:02;;;;;;;10.68;7.45;;;24.60;88.70;;;;;;5110222;28;19907;-83
2021/07/16 09:18:32;;;;;;;8.73;7.38;;;25.00;87.20;;;;;;5105695;28;20042;-82
2021/07/16 09:21:01;;;;;;;11.65;8.98;;;25.30;86.30;;;;;;5111238;28;20024;-84
2021/07/16 09:23:37;;;;;;;11.40;8.50;;;25.30;84.20;;;;;;5109608;28;20027;-83
2021/07/16 09:26:13;;;;;;;13.07;8.88;;;25.20;81.90;;;;;;5111404;28;20381;-84
2021/07/16 09:28:45;;;;;;;10.30;9.07;;;25.10;81.60;;;;;;5107083;28;20055;-83
2021/07/16 09:31:17;;;;;;;12.67;8.50;;;24.90;81.80;;;;;;5099691;28;20526;-83
2021/07/16 09:33:52;;;;;;;13.20;8.55;;;24.70;85.20;;;;;;5107174;28;20421;-83
2021/07/16 09:36:33;;;;;;;9.88;8.35;;;24.70;86.30;;;;;;5110278;28;20103;-84
2021/07/16 09:39:16;;;;;;;10.98;8.63;;;24.80;86.20;;;;;;5107059;28;20044;-83
2021/07/16 09:41:55;;;;;;;14.30;9.48;;;25.00;86.70;;;;;;5092921;28;20032;-83
2021/07/16 09:44:36;;;;;;;10.80;8.50;;;25.20;87.70;;;;;;5090201;28;20507;-83
2021/07/16 09:47:21;;;;;;;15.20;9.27;;;25.30;85.00;;;;;;5098087;28;20129;-82
2021/07/16 09:50:07;;;;;;;15.63;10.75;;;25.10;91.10;;;;;;5095468;28;20358;-81
2021/07/16 09:52:33;;;;;;;12.57;10.00;;;25.30;92.30;;;;;;5091392;28;20024;-81
2021/07/16 09:55:22;;;;;;;12.45;9.02;;;25.10;88.60;;;;;;5092667;28;20388;-81
2021/07/16 09:57:49;;;;;;;14.98;9.50;;;25.00;87.10;;;;;;5092560;28;20063;-81
2021/07/16 10:00:26;;;;;;;14.57;9.32;;;24.90;89.40;;;;;;5095407;28;20481;-81
2021/07/16 10:02:59;;;;;;;12.98;10.27;;;25.00;87.40;;;;;;5102590;28;20058;-81
2021/07/16 10:05:25;;;;;;;13.23;9.85;;;24.90;88.30;;;;;;5110162;28;20510;-79
2021/07/16 10:07:51;;;;;;;19.50;10.70;;;25.10;87.50;;;;;;5112687;28;20020;-80
2021/07/16 10:10:19;;;;;;;12.68;9.68;;;25.30;86.40;;;;;;5112177;28;20027;-79
2021/07/16 10:12:47;;;;;;;14.50;9.60;;;25.60;82.00;;;;;;5112467;28;20020;-80
2021/07/16 10:15:20;;;;;;;13.10;10.70;;;25.70;84.80;;;;;;5111178;27;20042;-79
2021/07/16 10:17:46;;;;;;;18.15;10.55;;;25.70;83.70;;;;;;5092038;28;20084;-79
2021/07/16 10:20:16;;;;;;;13.05;9.73;;;25.80;83.40;;;;;;5110017;28;20399;-80
2021/07/16 10:22:44;;;;;;;18.63;10.73;;;25.90;81.20;;;;;;5111027;28;20020;-80
2021/07/16 10:25:12;;;;;;;14.15;10.38;;;25.80;79.30;;;;;;5112039;28;20039;-79
2021/07/16 10:27:41;;;;;;;18.25;11.23;;;25.90;79.00;;;;;;5109073;28;20039;-81
2021/07/16 10:30:12;;;;;;;14.45;11.13;;;25.90;78.20;;;;;;5088498;28;20115;-81
2021/07/16 10:32:47;;;;;;;16.20;10.93;;;26.10;78.90;;;;;;5090184;28;20093;-82
2021/07/16 10:35:22;;;;;;;13.07;10.70;;;26.40;76.80;;;;;;5094229;28;20048;-81
2021/07/16 10:37:52;;;;;;;13.60;10.23;;;26.60;72.40;;;;;;5098164;28;20039;-82
2021/07/16 10:40:43;;;;;;;14.23;11.23;;;26.90;72.90;;;;;;5100100;28;20490;-81
2021/07/16 10:43:29;;;;;;;14.93;10.70;;;27.20;72.10;;;;;;5094497;27;20049;-81
2021/07/16 10:45:56;;;;;;;15.40;11.60;;;27.10;74.40;;;;;;5100016;28;20051;-81
2021/07/16 10:48:29;;;;;;;14.40;10.52;;;27.10;72.70;;;;;;5102427;28;20114;-81
2021/07/16 10:50:54;;;;;;;15.65;10.85;;;27.30;75.30;;;;;;5102797;28;20103;-81
2021/07/16 10:53:29;;;;;;;13.95;11.68;;;27.00;76.10;;;;;;5101642;28;20103;-81
2021/07/16 10:55:55;;;;;;;14.48;10.15;;;26.90;76.30;;;;;;5099517;28;20053;-82
2021/07/16 10:58:26;;;;;;;15.88;11.27;;;26.90;76.80;;;;;;5102647;28;20502;-81
2021/07/16 11:01:05;;;;;;;13.27;10.73;;;26.60;80.50;;;;;;5102422;28;20077;-81
2021/07/16 11:03:51;;;;;;;19.17;12.57;;;26.50;78.60;;;;;;5100876;28;20771;-82
2021/07/16 11:06:20;;;;;;;15.77;11.95;;;26.70;79.00;;;;;;5103259;28;20046;-82
2021/07/16 11:08:47;;;;;;;15.23;11.35;;;26.80;75.30;;;;;;5102320;28;20047;-82
2021/07/16 11:11:34;;;;;;;13.65;12.20;;;27.00;75.60;;;;;;5101331;28;20358;-82
2021/07/16 11:14:00;;;;;;;14.68;11.32;;;27.30;72.20;;;;;;5101764;28;20033;-81
2021/07/16 11:16:32;;;;;;;14.95;11.82;;;27.50;70.20;;;;;;5102268;28;20031;-82
2021/07/16 11:19:02;;;;;;;18.73;11.48;;;27.50;68.80;;;;;;5099915;28;20032;-81
2021/07/16 11:21:43;;;;;;;14.20;10.82;;;27.60;70.00;;;;;;5100645;28;20046;-82
2021/07/16 11:27:10;;;;;;;15.10;11.63;;;27.60;70.40;;;;;;5098303;28;20119;-82
2021/07/16 11:29:39;;;;;;;13.80;11.98;;;27.60;69.70;;;;;;5097493;28;20020;-82
2021/07/16 11:32:24;;;;;;;15.93;11.35;;;27.50;71.30;;;;;;5110171;28;20027;-82
2021/07/16 11:34:52;;;;;;;14.52;11.73;;;27.50;73.30;;;;;;5109543;28;20039;-83
2021/07/16 11:37:50;;;;;;;14.23;11.68;;;27.50;72.30;;;;;;5097372;28;20028;-82
2021/07/16 11:40:22;;;;;;;18.38;11.40;;;27.60;69.20;;;;;;5088608;28;20036;-82
2021/07/16 11:42:49;;;;;;;14.02;11.32;;;28.00;73.50;;;;;;5090966;28;20051;-82
2021/07/16 11:45:25;;;;;;;14.25;11.32;;;28.30;73.90;;;;;;5095412;28;20103;-82
2021/07/16 11:47:53;;;;;;;15.63;11.70;;;28.20;71.10;;;;;;5100319;28;20358;-81
2021/07/16 11:50:19;;;;;;;16.60;10.88;;;28.30;72.30;;;;;;5099528;28;20028;-81
2021/07/16 11:52:47;;;;;;;16.38;11.65;;;28.30;71.90;;;;;;5101332;28;20038;-82
2021/07/16 11:55:22;;;;;;;14.52;12.32;;;28.20;68.80;;;;;;5101211;28;20520;-82
2021/07/16 11:57:52;;;;;;;13.43;10.85;;;28.20;72.10;;;;;;5100210;28;20052;-82
2021/07/16 12:00:35;;;;;;;13.73;11.57;;;28.10;72.10;;;;;;5099590;28;20081;-82
2021/07/16 12:03:15;;;;;;;13.25;11.75;;;28.20;70.10;;;;;;5106600;28;20481;-82
2021/07/16 12:05:50;;;;;;;14.68;11.55;;;28.10;70.00;;;;;;5106201;28;20066;-82
2021/07/16 12:08:21;;;;;;;12.57;11.27;;;28.00;68.20;;;;;;5104270;28;20012;-82
2021/07/16 12:10:48;;;;;;;14.73;11.48;;;27.90;71.20;;;;;;5104776;28;20027;-82
2021/07/16 12:13:16;;;;;;;15.10;12.18;;;28.00;70.50;;;;;;5104904;28;20020;-81
2021/07/16 12:15:42;;;;;;;14.18;12.30;;;27.90;69.40;;;;;;5103067;28;20016;-82
2021/07/16 12:18:08;;;;;;;15.75;12.48;;;27.90;74.70;;;;;;5103550;28;20625;-82
2021/07/16 12:20:36;;;;;;;15.88;11.63;;;28.00;75.20;;;;;;5103186;28;20017;-82
2021/07/16 12:23:08;;;;;;;11.98;10.85;;;27.90;74.70;;;;;;5104074;28;20059;-82
2021/07/16 12:25:35;;;;;;;17.13;12.15;;;27.80;71.90;;;;;;5110241;28;20058;-82
2021/07/16 12:28:08;;;;;;;20.08;12.55;;;27.90;74.50;;;;;;5109494;28;20020;-82
2021/07/16 12:30:35;;;;;;;14.73;11.52;;;27.90;75.90;;;;;;5094402;28;20384;-82
2021/07/16 12:33:07;;;;;;;13.98;12.05;;;28.00;74.60;;;;;;5100462;28;20698;-82
2021/07/16 12:35:40;;;;;;;;;;;27.90;71.30;;;;;;5104318;28;20503;-82